sensor_id;sensor_type;location;lat;lon;timestamp;P1;durP1;ratioP1;P2;durP2;ratioP2
13335;SDS011;6737;51.480;11.962;2023-02-15T00:01:51;23.53;;;14.00;;
13335;SDS011;6737;51.480;11.962;2023-02-15T00:04:19;24.63;;;14.60;;
13335;SDS011;6737;51.480;11.962;2023-02-15T00:06:47;22.30;;;14.07;;
13335;SDS011;6737;51.480;11.962;2023-02-15T00:09:13;22.03;;;14.20;;
13335;SDS011;6737;51.480;11.962;2023-02-15T00:11:38;23.60;;;14.23;;
13335;SDS011;6737;51.480;11.962;2023-02-15T00:14:06;24.47;;;14.93;;
13335;SDS011;6737;51.480;11.962;2023-02-15T00:16:33;23.63;;;14.47;;
13335;SDS011;6737;51.480;11.962;2023-02-15T00:19:00;23.80;;;14.57;;
13335;SDS011;6737;51.480;11.962;2023-02-15T00:21:27;24.47;;;16.23;;
13335;SDS011;6737;51.480;11.962;2023-02-15T00:23:55;23.53;;;15.40;;
13335;SDS011;6737;51.480;11.962;2023-02-15T00:26:22;23.73;;;15.83;;
13335;SDS011;6737;51.480;11.962;2023-02-15T00:28:48;29.33;;;16.97;;
13335;SDS011;6737;51.480;11.962;2023-02-15T00:31:14;27.40;;;17.30;;
13335;SDS011;6737;51.480;11.962;2023-02-15T00:33:40;30.47;;;17.47;;
13335;SDS011;6737;51.480;11.962;2023-02-15T00:36:06;26.23;;;15.57;;
13335;SDS011;6737;51.480;11.962;2023-02-15T00:38:33;23.83;;;15.00;;
13335;SDS011;6737;51.480;11.962;2023-02-15T00:41:01;20.33;;;13.27;;
13335;SDS011;6737;51.480;11.962;2023-02-15T00:43:29;24.33;;;13.20;;
13335;SDS011;6737;51.480;11.962;2023-02-15T00:45:56;41.43;;;17.33;;
13335;SDS011;6737;51.480;11.962;2023-02-15T00:48:22;58.87;;;16.77;;
13335;SDS011;6737;51.480;11.962;2023-02-15T00:50:49;84.90;;;20.07;;
13335;SDS011;6737;51.480;11.962;2023-02-15T00:53:17;174.10;;;23.47;;
13335;SDS011;6737;51.480;11.962;2023-02-15T00:55:43;194.23;;;24.80;;
13335;SDS011;6737;51.480;11.962;2023-02-15T00:58:09;206.37;;;26.47;;
13335;SDS011;6737;51.480;11.962;2023-02-15T01:00:37;169.03;;;24.07;;
13335;SDS011;6737;51.480;11.962;2023-02-15T01:03:03;212.53;;;26.27;;
13335;SDS011;6737;51.480;11.962;2023-02-15T01:05:30;279.97;;;26.60;;
13335;SDS011;6737;51.480;11.962;2023-02-15T01:07:57;223.57;;;24.17;;
13335;SDS011;6737;51.480;11.962;2023-02-15T01:10:25;209.43;;;25.77;;
13335;SDS011;6737;51.480;11.962;2023-02-15T01:12:51;207.43;;;24.27;;
13335;SDS011;6737;51.480;11.962;2023-02-15T01:15:18;81.90;;;23.33;;
13335;SDS011;6737;51.480;11.962;2023-02-15T01:17:44;86.30;;;23.37;;
13335;SDS011;6737;51.480;11.962;2023-02-15T01:20:17;113.33;;;22.87;;
13335;SDS011;6737;51.480;11.962;2023-02-15T01:22:44;99.57;;;24.37;;
13335;SDS011;6737;51.480;11.962;2023-02-15T01:25:09;111.00;;;24.17;;
13335;SDS011;6737;51.480;11.962;2023-02-15T01:27:35;102.63;;;23.87;;
13335;SDS011;6737;51.480;11.962;2023-02-15T01:30:01;107.57;;;22.67;;
13335;SDS011;6737;51.480;11.962;2023-02-15T01:32:29;82.50;;;21.63;;
13335;SDS011;6737;51.480;11.962;2023-02-15T01:34:56;114.40;;;23.73;;
13335;SDS011;6737;51.480;11.962;2023-02-15T01:37:21;134.47;;;24.47;;
13335;SDS011;6737;51.480;11.962;2023-02-15T01:39:47;196.10;;;25.80;;
13335;SDS011;6737;51.480;11.962;2023-02-15T01:42:13;157.03;;;25.80;;
13335;SDS011;6737;51.480;11.962;2023-02-15T01:49:48;260.63;;;25.47;;
13335;SDS011;6737;51.480;11.962;2023-02-15T01:52:25;276.50;;;26.87;;
13335;SDS011;6737;51.480;11.962;2023-02-15T01:54:51;294.57;;;26.70;;
13335;SDS011;6737;51.480;11.962;2023-02-15T01:57:18;174.43;;;22.67;;
13335;SDS011;6737;51.480;11.962;2023-02-15T01:59:48;207.77;;;24.37;;
13335;SDS011;6737;51.480;11.962;2023-02-15T02:02:20;222.10;;;25.03;;
13335;SDS011;6737;51.480;11.962;2023-02-15T02:04:53;288.47;;;28.60;;
13335;SDS011;6737;51.480;11.962;2023-02-15T02:07:26;290.73;;;28.80;;
13335;SDS011;6737;51.480;11.962;2023-02-15T02:09:54;226.30;;;28.63;;
13335;SDS011;6737;51.480;11.962;2023-02-15T02:12:20;265.67;;;28.47;;
13335;SDS011;6737;51.480;11.962;2023-02-15T02:14:48;380.80;;;31.03;;
13335;SDS011;6737;51.480;11.962;2023-02-15T02:33:54;360.10;;;29.97;;
13335;SDS011;6737;51.480;11.962;2023-02-15T02:44:31;165.37;;;24.97;;
13335;SDS011;6737;51.480;11.962;2023-02-15T02:47:10;218.83;;;25.43;;
13335;SDS011;6737;51.480;11.962;2023-02-15T02:49:52;161.97;;;25.00;;
13335;SDS011;6737;51.480;11.962;2023-02-15T02:55:30;201.67;;;23.63;;
13335;SDS011;6737;51.480;11.962;2023-02-15T02:58:03;157.27;;;23.23;;
13335;SDS011;6737;51.480;11.962;2023-02-15T03:00:46;156.63;;;22.43;;
13335;SDS011;6737;51.480;11.962;2023-02-15T03:03:51;87.30;;;19.63;;
13335;SDS011;6737;51.480;11.962;2023-02-15T03:06:25;116.33;;;19.50;;
13335;SDS011;6737;51.480;11.962;2023-02-15T03:09:01;105.60;;;18.73;;
13335;SDS011;6737;51.480;11.962;2023-02-15T03:11:32;111.73;;;18.97;;
13335;SDS011;6737;51.480;11.962;2023-02-15T03:13:58;107.43;;;18.57;;
13335;SDS011;6737;51.480;11.962;2023-02-15T03:16:24;68.23;;;17.67;;
13335;SDS011;6737;51.480;11.962;2023-02-15T03:18:55;95.97;;;18.50;;
13335;SDS011;6737;51.480;11.962;2023-02-15T03:24:27;59.60;;;16.30;;
13335;SDS011;6737;51.480;11.962;2023-02-15T03:27:00;49.40;;;15.93;;
13335;SDS011;6737;51.480;11.962;2023-02-15T03:29:32;51.20;;;14.53;;
13335;SDS011;6737;51.480;11.962;2023-02-15T03:31:59;45.93;;;14.73;;
13335;SDS011;6737;51.480;11.962;2023-02-15T03:34:28;62.87;;;14.63;;
13335;SDS011;6737;51.480;11.962;2023-02-15T03:43:07;32.10;;;14.90;;
13335;SDS011;6737;51.480;11.962;2023-02-15T03:45:57;23.70;;;13.77;;
13335;SDS011;6737;51.480;11.962;2023-02-15T03:48:37;21.10;;;13.07;;
13335;SDS011;6737;51.480;11.962;2023-02-15T03:51:13;17.80;;;12.67;;
13335;SDS011;6737;51.480;11.962;2023-02-15T03:56:35;19.83;;;12.17;;
13335;SDS011;6737;51.480;11.962;2023-02-15T03:59:03;17.83;;;11.73;;
13335;SDS011;6737;51.480;11.962;2023-02-15T04:04:39;15.10;;;10.63;;
13335;SDS011;6737;51.480;11.962;2023-02-15T04:07:08;16.00;;;10.63;;
13335;SDS011;6737;51.480;11.962;2023-02-15T04:09:34;14.03;;;10.33;;
13335;SDS011;6737;51.480;11.962;2023-02-15T04:12:18;13.07;;;9.33;;
13335;SDS011;6737;51.480;11.962;2023-02-15T04:14:44;15.17;;;9.67;;
13335;SDS011;6737;51.480;11.962;2023-02-15T04:17:29;16.57;;;11.30;;
13335;SDS011;6737;51.480;11.962;2023-02-15T04:19:54;16.30;;;11.10;;
13335;SDS011;6737;51.480;11.962;2023-02-15T04:22:39;14.50;;;11.00;;
13335;SDS011;6737;51.480;11.962;2023-02-15T04:25:24;15.20;;;10.67;;
13335;SDS011;6737;51.480;11.962;2023-02-15T04:27:50;15.20;;;10.93;;
13335;SDS011;6737;51.480;11.962;2023-02-15T04:30:19;16.87;;;11.33;;
13335;SDS011;6737;51.480;11.962;2023-02-15T04:32:47;17.10;;;11.77;;
13335;SDS011;6737;51.480;11.962;2023-02-15T04:35:14;15.97;;;11.80;;
13335;SDS011;6737;51.480;11.962;2023-02-15T04:37:40;20.33;;;11.90;;
13335;SDS011;6737;51.480;11.962;2023-02-15T04:40:07;18.57;;;11.10;;
13335;SDS011;6737;51.480;11.962;2023-02-15T04:42:36;17.07;;;11.83;;
13335;SDS011;6737;51.480;11.962;2023-02-15T04:45:03;16.43;;;11.73;;
13335;SDS011;6737;51.480;11.962;2023-02-15T04:47:29;15.07;;;11.00;;
13335;SDS011;6737;51.480;11.962;2023-02-15T04:49:55;15.67;;;11.00;;
13335;SDS011;6737;51.480;11.962;2023-02-15T04:52:21;20.83;;;10.37;;
13335;SDS011;6737;51.480;11.962;2023-02-15T04:54:47;23.23;;;11.07;;
13335;SDS011;6737;51.480;11.962;2023-02-15T04:57:12;20.63;;;10.80;;
13335;SDS011;6737;51.480;11.962;2023-02-15T04:59:39;25.57;;;11.07;;
13335;SDS011;6737;51.480;11.962;2023-02-15T05:02:05;17.63;;;10.97;;
13335;SDS011;6737;51.480;11.962;2023-02-15T05:04:30;15.73;;;10.27;;
13335;SDS011;6737;51.480;11.962;2023-02-15T05:06:56;12.80;;;9.10;;
13335;SDS011;6737;51.480;11.962;2023-02-15T05:09:22;14.27;;;9.30;;
13335;SDS011;6737;51.480;11.962;2023-02-15T05:11:48;25.03;;;12.33;;
13335;SDS011;6737;51.480;11.962;2023-02-15T05:14:13;25.57;;;12.73;;
13335;SDS011;6737;51.480;11.962;2023-02-15T05:16:39;24.70;;;9.77;;
13335;SDS011;6737;51.480;11.962;2023-02-15T05:19:05;18.47;;;8.77;;
13335;SDS011;6737;51.480;11.962;2023-02-15T05:21:31;26.00;;;9.00;;
13335;SDS011;6737;51.480;11.962;2023-02-15T05:23:57;18.47;;;9.30;;
13335;SDS011;6737;51.480;11.962;2023-02-15T05:26:23;22.10;;;9.03;;
13335;SDS011;6737;51.480;11.962;2023-02-15T05:29:09;24.60;;;9.47;;
13335;SDS011;6737;51.480;11.962;2023-02-15T05:31:35;16.07;;;9.67;;
13335;SDS011;6737;51.480;11.962;2023-02-15T05:34:02;17.37;;;9.50;;
13335;SDS011;6737;51.480;11.962;2023-02-15T05:36:28;17.23;;;9.87;;
13335;SDS011;6737;51.480;11.962;2023-02-15T05:38:54;22.33;;;10.07;;
13335;SDS011;6737;51.480;11.962;2023-02-15T05:41:20;13.80;;;9.33;;
13335;SDS011;6737;51.480;11.962;2023-02-15T05:43:46;15.43;;;9.67;;
13335;SDS011;6737;51.480;11.962;2023-02-15T05:46:12;14.10;;;9.63;;
13335;SDS011;6737;51.480;11.962;2023-02-15T05:48:38;18.53;;;10.07;;
13335;SDS011;6737;51.480;11.962;2023-02-15T05:51:05;17.33;;;9.00;;
13335;SDS011;6737;51.480;11.962;2023-02-15T05:53:35;17.63;;;9.47;;
13335;SDS011;6737;51.480;11.962;2023-02-15T05:56:03;14.03;;;9.00;;
13335;SDS011;6737;51.480;11.962;2023-02-15T05:58:31;12.63;;;8.20;;
13335;SDS011;6737;51.480;11.962;2023-02-15T06:01:06;10.73;;;8.23;;
13335;SDS011;6737;51.480;11.962;2023-02-15T06:03:34;13.10;;;7.70;;
13335;SDS011;6737;51.480;11.962;2023-02-15T06:06:00;10.40;;;7.40;;
13335;SDS011;6737;51.480;11.962;2023-02-15T06:08:26;10.97;;;7.53;;
13335;SDS011;6737;51.480;11.962;2023-02-15T06:10:51;15.53;;;7.43;;
13335;SDS011;6737;51.480;11.962;2023-02-15T06:13:17;16.53;;;7.10;;
13335;SDS011;6737;51.480;11.962;2023-02-15T06:15:43;12.37;;;7.50;;
13335;SDS011;6737;51.480;11.962;2023-02-15T06:18:08;43.80;;;8.73;;
13335;SDS011;6737;51.480;11.962;2023-02-15T06:20:34;35.20;;;8.40;;
13335;SDS011;6737;51.480;11.962;2023-02-15T06:23:00;14.10;;;7.40;;
13335;SDS011;6737;51.480;11.962;2023-02-15T06:25:26;9.73;;;7.33;;
13335;SDS011;6737;51.480;11.962;2023-02-15T06:27:51;19.97;;;8.37;;
13335;SDS011;6737;51.480;11.962;2023-02-15T06:30:17;20.30;;;8.50;;
13335;SDS011;6737;51.480;11.962;2023-02-15T06:32:43;22.03;;;9.07;;
13335;SDS011;6737;51.480;11.962;2023-02-15T06:35:09;15.77;;;8.27;;
13335;SDS011;6737;51.480;11.962;2023-02-15T06:37:34;18.03;;;8.87;;
13335;SDS011;6737;51.480;11.962;2023-02-15T06:40:00;50.77;;;9.30;;
13335;SDS011;6737;51.480;11.962;2023-02-15T06:42:26;20.07;;;8.80;;
13335;SDS011;6737;51.480;11.962;2023-02-15T06:44:51;25.70;;;8.53;;
13335;SDS011;6737;51.480;11.962;2023-02-15T06:47:17;14.87;;;8.37;;
13335;SDS011;6737;51.480;11.962;2023-02-15T06:49:43;25.17;;;9.27;;
13335;SDS011;6737;51.480;11.962;2023-02-15T06:52:09;21.77;;;9.03;;
13335;SDS011;6737;51.480;11.962;2023-02-15T06:54:35;19.07;;;8.73;;
13335;SDS011;6737;51.480;11.962;2023-02-15T06:57:00;53.70;;;9.93;;
13335;SDS011;6737;51.480;11.962;2023-02-15T06:59:26;40.30;;;10.67;;
13335;SDS011;6737;51.480;11.962;2023-02-15T07:01:52;23.97;;;9.67;;
13335;SDS011;6737;51.480;11.962;2023-02-15T07:04:18;41.73;;;9.87;;
13335;SDS011;6737;51.480;11.962;2023-02-15T07:06:44;38.60;;;10.73;;
13335;SDS011;6737;51.480;11.962;2023-02-15T07:09:10;34.67;;;10.63;;
13335;SDS011;6737;51.480;11.962;2023-02-15T07:11:38;23.60;;;10.50;;
13335;SDS011;6737;51.480;11.962;2023-02-15T07:14:22;20.17;;;10.83;;
13335;SDS011;6737;51.480;11.962;2023-02-15T07:16:48;22.00;;;11.40;;
13335;SDS011;6737;51.480;11.962;2023-02-15T07:19:14;23.60;;;11.70;;
13335;SDS011;6737;51.480;11.962;2023-02-15T07:21:40;15.87;;;12.17;;
13335;SDS011;6737;51.480;11.962;2023-02-15T07:24:05;37.83;;;11.43;;
13335;SDS011;6737;51.480;11.962;2023-02-15T07:26:32;43.87;;;12.07;;
13335;SDS011;6737;51.480;11.962;2023-02-15T07:28:58;52.03;;;12.27;;
13335;SDS011;6737;51.480;11.962;2023-02-15T07:31:23;26.80;;;11.70;;
13335;SDS011;6737;51.480;11.962;2023-02-15T07:33:49;15.07;;;11.60;;
13335;SDS011;6737;51.480;11.962;2023-02-15T07:36:15;16.00;;;11.57;;
13335;SDS011;6737;51.480;11.962;2023-02-15T07:38:41;17.37;;;12.10;;
13335;SDS011;6737;51.480;11.962;2023-02-15T07:41:08;16.47;;;11.63;;
13335;SDS011;6737;51.480;11.962;2023-02-15T07:43:40;16.47;;;11.93;;
13335;SDS011;6737;51.480;11.962;2023-02-15T07:46:09;15.10;;;12.03;;
13335;SDS011;6737;51.480;11.962;2023-02-15T07:48:38;16.03;;;10.77;;
13335;SDS011;6737;51.480;11.962;2023-02-15T07:51:06;15.10;;;11.30;;
13335;SDS011;6737;51.480;11.962;2023-02-15T07:53:34;13.33;;;10.67;;
13335;SDS011;6737;51.480;11.962;2023-02-15T07:56:01;16.13;;;11.63;;
13335;SDS011;6737;51.480;11.962;2023-02-15T07:58:29;16.73;;;11.70;;
13335;SDS011;6737;51.480;11.962;2023-02-15T08:01:14;16.13;;;11.70;;
13335;SDS011;6737;51.480;11.962;2023-02-15T08:03:40;18.13;;;12.10;;
13335;SDS011;6737;51.480;11.962;2023-02-15T08:06:06;16.60;;;11.43;;
13335;SDS011;6737;51.480;11.962;2023-02-15T08:08:35;20.50;;;12.70;;
13335;SDS011;6737;51.480;11.962;2023-02-15T08:13:47;18.03;;;12.63;;
13335;SDS011;6737;51.480;11.962;2023-02-15T08:21:41;20.77;;;13.17;;
13335;SDS011;6737;51.480;11.962;2023-02-15T08:24:09;18.93;;;12.33;;
13335;SDS011;6737;51.480;11.962;2023-02-15T08:26:36;19.53;;;13.17;;
13335;SDS011;6737;51.480;11.962;2023-02-15T08:29:04;20.57;;;13.87;;
13335;SDS011;6737;51.480;11.962;2023-02-15T08:31:31;23.77;;;13.77;;
13335;SDS011;6737;51.480;11.962;2023-02-15T08:33:58;20.40;;;13.77;;
13335;SDS011;6737;51.480;11.962;2023-02-15T08:36:25;21.80;;;13.93;;
13335;SDS011;6737;51.480;11.962;2023-02-15T08:38:54;18.90;;;13.07;;
13335;SDS011;6737;51.480;11.962;2023-02-15T08:41:24;20.67;;;12.80;;
13335;SDS011;6737;51.480;11.962;2023-02-15T08:43:52;16.17;;;11.47;;
13335;SDS011;6737;51.480;11.962;2023-02-15T08:46:19;18.20;;;12.17;;
13335;SDS011;6737;51.480;11.962;2023-02-15T08:48:47;16.70;;;12.00;;
13335;SDS011;6737;51.480;11.962;2023-02-15T08:51:15;16.67;;;11.93;;
13335;SDS011;6737;51.480;11.962;2023-02-15T08:53:46;17.67;;;12.03;;
13335;SDS011;6737;51.480;11.962;2023-02-15T08:56:17;16.63;;;11.63;;
13335;SDS011;6737;51.480;11.962;2023-02-15T08:58:45;15.60;;;11.27;;
13335;SDS011;6737;51.480;11.962;2023-02-15T09:01:15;17.47;;;12.30;;
13335;SDS011;6737;51.480;11.962;2023-02-15T09:03:44;15.17;;;11.13;;
13335;SDS011;6737;51.480;11.962;2023-02-15T09:06:11;18.50;;;12.07;;
13335;SDS011;6737;51.480;11.962;2023-02-15T09:08:37;13.80;;;10.40;;
13335;SDS011;6737;51.480;11.962;2023-02-15T09:13:32;15.53;;;11.07;;
13335;SDS011;6737;51.480;11.962;2023-02-15T09:16:04;15.97;;;10.93;;
13335;SDS011;6737;51.480;11.962;2023-02-15T09:18:33;16.00;;;10.97;;
13335;SDS011;6737;51.480;11.962;2023-02-15T09:21:08;15.37;;;11.27;;
13335;SDS011;6737;51.480;11.962;2023-02-15T09:23:35;14.77;;;11.03;;
13335;SDS011;6737;51.480;11.962;2023-02-15T09:26:04;16.60;;;11.93;;
13335;SDS011;6737;51.480;11.962;2023-02-15T09:28:41;15.13;;;11.23;;
13335;SDS011;6737;51.480;11.962;2023-02-15T09:31:08;15.87;;;11.23;;
13335;SDS011;6737;51.480;11.962;2023-02-15T09:33:37;15.53;;;11.03;;
13335;SDS011;6737;51.480;11.962;2023-02-15T09:36:05;15.33;;;11.10;;
13335;SDS011;6737;51.480;11.962;2023-02-15T09:38:40;13.60;;;10.50;;
13335;SDS011;6737;51.480;11.962;2023-02-15T09:41:10;14.73;;;10.67;;
13335;SDS011;6737;51.480;11.962;2023-02-15T09:46:50;14.63;;;10.43;;
13335;SDS011;6737;51.480;11.962;2023-02-15T09:58:16;13.20;;;10.10;;
13335;SDS011;6737;51.480;11.962;2023-02-15T10:01:18;12.57;;;9.57;;
13335;SDS011;6737;51.480;11.962;2023-02-15T10:28:05;12.23;;;8.90;;
13335;SDS011;6737;51.480;11.962;2023-02-15T10:30:47;11.10;;;8.40;;
13335;SDS011;6737;51.480;11.962;2023-02-15T10:33:24;10.60;;;8.30;;
13335;SDS011;6737;51.480;11.962;2023-02-15T10:36:23;12.33;;;9.10;;
13335;SDS011;6737;51.480;11.962;2023-02-15T11:00:54;13.07;;;8.43;;
13335;SDS011;6737;51.480;11.962;2023-02-15T11:06:38;13.93;;;7.90;;
13335;SDS011;6737;51.480;11.962;2023-02-15T11:09:11;9.27;;;7.60;;
13335;SDS011;6737;51.480;11.962;2023-02-15T11:11:41;10.90;;;7.57;;
13335;SDS011;6737;51.480;11.962;2023-02-15T11:14:13;9.90;;;7.37;;
13335;SDS011;6737;51.480;11.962;2023-02-15T11:16:58;9.77;;;7.40;;
13335;SDS011;6737;51.480;11.962;2023-02-15T11:19:32;11.83;;;8.00;;
13335;SDS011;6737;51.480;11.962;2023-02-15T11:22:04;9.63;;;8.40;;
13335;SDS011;6737;51.480;11.962;2023-02-15T11:24:40;11.10;;;8.77;;
13335;SDS011;6737;51.480;11.962;2023-02-15T11:32:30;10.48;;;8.57;;
13335;SDS011;6737;51.480;11.962;2023-02-15T11:37:40;9.38;;;8.13;;
13335;SDS011;6737;51.480;11.962;2023-02-15T11:40:31;9.38;;;8.23;;
13335;SDS011;6737;51.480;11.962;2023-02-15T11:43:05;9.98;;;8.32;;
13335;SDS011;6737;51.480;11.962;2023-02-15T11:45:37;9.03;;;7.90;;
13335;SDS011;6737;51.480;11.962;2023-02-15T11:48:09;9.10;;;8.03;;
13335;SDS011;6737;51.480;11.962;2023-02-15T11:50:38;8.60;;;7.70;;
13335;SDS011;6737;51.480;11.962;2023-02-15T11:53:04;9.20;;;7.70;;
13335;SDS011;6737;51.480;11.962;2023-02-15T11:55:38;8.90;;;7.47;;
13335;SDS011;6737;51.480;11.962;2023-02-15T11:58:06;9.33;;;7.50;;
13335;SDS011;6737;51.480;11.962;2023-02-15T12:03:49;7.60;;;6.75;;
13335;SDS011;6737;51.480;11.962;2023-02-15T12:06:29;8.35;;;6.90;;
13335;SDS011;6737;51.480;11.962;2023-02-15T12:09:17;8.40;;;7.50;;
13335;SDS011;6737;51.480;11.962;2023-02-15T12:12:21;8.80;;;6.93;;
13335;SDS011;6737;51.480;11.962;2023-02-15T12:14:56;8.53;;;7.10;;
13335;SDS011;6737;51.480;11.962;2023-02-15T12:17:49;8.65;;;7.35;;
13335;SDS011;6737;51.480;11.962;2023-02-15T12:22:50;7.70;;;6.90;;
13335;SDS011;6737;51.480;11.962;2023-02-15T12:25:25;8.63;;;6.63;;
13335;SDS011;6737;51.480;11.962;2023-02-15T12:28:01;8.55;;;7.10;;
13335;SDS011;6737;51.480;11.962;2023-02-15T12:30:29;7.85;;;7.05;;
13335;SDS011;6737;51.480;11.962;2023-02-15T12:35:31;7.70;;;6.90;;
13335;SDS011;6737;51.480;11.962;2023-02-15T12:38:04;7.33;;;6.50;;
13335;SDS011;6737;51.480;11.962;2023-02-15T12:41:00;6.95;;;6.18;;
13335;SDS011;6737;51.480;11.962;2023-02-15T12:43:32;7.28;;;6.25;;
13335;SDS011;6737;51.480;11.962;2023-02-15T12:46:21;7.07;;;6.00;;
13335;SDS011;6737;51.480;11.962;2023-02-15T12:51:43;7.70;;;6.60;;
13335;SDS011;6737;51.480;11.962;2023-02-15T12:54:34;8.38;;;6.38;;
13335;SDS011;6737;51.480;11.962;2023-02-15T12:59:55;7.65;;;6.53;;
13335;SDS011;6737;51.480;11.962;2023-02-15T13:02:50;7.25;;;6.55;;
13335;SDS011;6737;51.480;11.962;2023-02-15T13:05:19;6.90;;;6.18;;
13335;SDS011;6737;51.480;11.962;2023-02-15T13:07:58;7.55;;;6.57;;
13335;SDS011;6737;51.480;11.962;2023-02-15T13:10:41;7.35;;;6.25;;
13335;SDS011;6737;51.480;11.962;2023-02-15T13:13:32;7.18;;;6.00;;
13335;SDS011;6737;51.480;11.962;2023-02-15T13:16:07;7.15;;;5.60;;
13335;SDS011;6737;51.480;11.962;2023-02-15T13:21:06;6.68;;;5.20;;
13335;SDS011;6737;51.480;11.962;2023-02-15T13:23:37;6.80;;;5.30;;
13335;SDS011;6737;51.480;11.962;2023-02-15T13:26:09;6.22;;;5.10;;
13335;SDS011;6737;51.480;11.962;2023-02-15T13:28:44;5.70;;;4.72;;
13335;SDS011;6737;51.480;11.962;2023-02-15T13:31:21;6.22;;;4.85;;
13335;SDS011;6737;51.480;11.962;2023-02-15T13:33:51;5.90;;;4.80;;
13335;SDS011;6737;51.480;11.962;2023-02-15T13:36:30;5.78;;;4.38;;
13335;SDS011;6737;51.480;11.962;2023-02-15T13:42:30;5.63;;;4.20;;
13335;SDS011;6737;51.480;11.962;2023-02-15T13:51:15;5.53;;;4.50;;
13335;SDS011;6737;51.480;11.962;2023-02-15T13:56:13;6.70;;;5.15;;
13335;SDS011;6737;51.480;11.962;2023-02-15T14:01:34;8.15;;;5.90;;
13335;SDS011;6737;51.480;11.962;2023-02-15T14:07:10;5.70;;;5.10;;
13335;SDS011;6737;51.480;11.962;2023-02-15T14:13:16;4.80;;;4.20;;
13335;SDS011;6737;51.480;11.962;2023-02-15T14:16:09;5.50;;;4.30;;
13335;SDS011;6737;51.480;11.962;2023-02-15T14:21:57;5.53;;;3.97;;
13335;SDS011;6737;51.480;11.962;2023-02-15T14:24:37;5.72;;;3.78;;
13335;SDS011;6737;51.480;11.962;2023-02-15T14:29:50;4.10;;;3.70;;
13335;SDS011;6737;51.480;11.962;2023-02-15T14:32:24;4.18;;;3.47;;
13335;SDS011;6737;51.480;11.962;2023-02-15T14:35:05;4.80;;;3.80;;
13335;SDS011;6737;51.480;11.962;2023-02-15T14:40:40;5.30;;;3.60;;
13335;SDS011;6737;51.480;11.962;2023-02-15T14:43:29;4.20;;;3.80;;
13335;SDS011;6737;51.480;11.962;2023-02-15T14:46:21;5.53;;;3.80;;
13335;SDS011;6737;51.480;11.962;2023-02-15T14:56:42;4.43;;;3.60;;
13335;SDS011;6737;51.480;11.962;2023-02-15T14:59:16;3.85;;;3.40;;
13335;SDS011;6737;51.480;11.962;2023-02-15T15:01:57;4.20;;;3.53;;
13335;SDS011;6737;51.480;11.962;2023-02-15T15:04:39;3.85;;;3.45;;
13335;SDS011;6737;51.480;11.962;2023-02-15T15:07:26;5.00;;;3.67;;
13335;SDS011;6737;51.480;11.962;2023-02-15T15:12:42;4.00;;;3.60;;
13335;SDS011;6737;51.480;11.962;2023-02-15T15:15:14;3.85;;;3.45;;
13335;SDS011;6737;51.480;11.962;2023-02-15T15:18:42;4.50;;;3.80;;
13335;SDS011;6737;51.480;11.962;2023-02-15T15:21:51;5.03;;;3.70;;
13335;SDS011;6737;51.480;11.962;2023-02-15T15:32:46;4.53;;;3.30;;
13335;SDS011;6737;51.480;11.962;2023-02-15T15:35:28;4.90;;;3.17;;
13335;SDS011;6737;51.480;11.962;2023-02-15T15:41:39;7.65;;;3.70;;
13335;SDS011;6737;51.480;11.962;2023-02-15T15:46:52;4.70;;;3.78;;
13335;SDS011;6737;51.480;11.962;2023-02-15T15:49:29;4.43;;;3.53;;
13335;SDS011;6737;51.480;11.962;2023-02-15T15:52:01;4.20;;;3.72;;
13335;SDS011;6737;51.480;11.962;2023-02-15T15:54:28;4.70;;;3.77;;
13335;SDS011;6737;51.480;11.962;2023-02-15T15:56:57;4.47;;;3.80;;
13335;SDS011;6737;51.480;11.962;2023-02-15T15:59:31;4.13;;;3.72;;
13335;SDS011;6737;51.480;11.962;2023-02-15T16:02:09;4.80;;;4.13;;
13335;SDS011;6737;51.480;11.962;2023-02-15T16:04:43;5.63;;;4.60;;
13335;SDS011;6737;51.480;11.962;2023-02-15T16:09:58;5.10;;;3.80;;
13335;SDS011;6737;51.480;11.962;2023-02-15T16:12:32;4.30;;;3.53;;
13335;SDS011;6737;51.480;11.962;2023-02-15T16:15:04;5.63;;;3.77;;
13335;SDS011;6737;51.480;11.962;2023-02-15T16:17:45;4.53;;;3.70;;
13335;SDS011;6737;51.480;11.962;2023-02-15T16:20:16;6.80;;;3.37;;
13335;SDS011;6737;51.480;11.962;2023-02-15T16:23:16;4.80;;;3.83;;
13335;SDS011;6737;51.480;11.962;2023-02-15T16:28:31;4.73;;;3.33;;
13335;SDS011;6737;51.480;11.962;2023-02-15T16:31:04;4.37;;;3.50;;
13335;SDS011;6737;51.480;11.962;2023-02-15T16:33:39;4.77;;;3.70;;
13335;SDS011;6737;51.480;11.962;2023-02-15T16:36:26;4.77;;;3.87;;
13335;SDS011;6737;51.480;11.962;2023-02-15T16:41:22;5.50;;;4.23;;
13335;SDS011;6737;51.480;11.962;2023-02-15T16:43:52;6.13;;;4.50;;
13335;SDS011;6737;51.480;11.962;2023-02-15T16:46:24;7.90;;;4.50;;
13335;SDS011;6737;51.480;11.962;2023-02-15T16:48:51;13.77;;;5.10;;
13335;SDS011;6737;51.480;11.962;2023-02-15T16:51:23;12.27;;;4.70;;
13335;SDS011;6737;51.480;11.962;2023-02-15T16:53:52;7.40;;;4.07;;
13335;SDS011;6737;51.480;11.962;2023-02-15T16:56:26;6.90;;;4.20;;
13335;SDS011;6737;51.480;11.962;2023-02-15T16:58:57;7.23;;;4.40;;
13335;SDS011;6737;51.480;11.962;2023-02-15T17:01:25;9.33;;;4.37;;
13335;SDS011;6737;51.480;11.962;2023-02-15T17:07:04;6.10;;;4.37;;
13335;SDS011;6737;51.480;11.962;2023-02-15T17:09:40;5.73;;;4.20;;
13335;SDS011;6737;51.480;11.962;2023-02-15T17:15:30;6.77;;;4.00;;
13335;SDS011;6737;51.480;11.962;2023-02-15T17:20:29;7.20;;;4.70;;
13335;SDS011;6737;51.480;11.962;2023-02-15T17:22:55;7.73;;;4.43;;
13335;SDS011;6737;51.480;11.962;2023-02-15T17:25:24;6.67;;;5.20;;
13335;SDS011;6737;51.480;11.962;2023-02-15T17:28:02;5.97;;;4.37;;
13335;SDS011;6737;51.480;11.962;2023-02-15T17:30:30;7.97;;;4.63;;
13335;SDS011;6737;51.480;11.962;2023-02-15T17:33:02;6.70;;;4.60;;
13335;SDS011;6737;51.480;11.962;2023-02-15T17:35:30;7.37;;;4.30;;
13335;SDS011;6737;51.480;11.962;2023-02-15T17:38:04;6.73;;;4.13;;
13335;SDS011;6737;51.480;11.962;2023-02-15T17:40:45;9.23;;;4.67;;
13335;SDS011;6737;51.480;11.962;2023-02-15T17:43:12;9.17;;;5.03;;
13335;SDS011;6737;51.480;11.962;2023-02-15T17:45:40;10.57;;;5.10;;
13335;SDS011;6737;51.480;11.962;2023-02-15T17:48:20;6.50;;;4.70;;
13335;SDS011;6737;51.480;11.962;2023-02-15T17:51:01;9.13;;;5.03;;
13335;SDS011;6737;51.480;11.962;2023-02-15T17:53:29;8.17;;;5.33;;
13335;SDS011;6737;51.480;11.962;2023-02-15T17:55:56;7.53;;;5.00;;
13335;SDS011;6737;51.480;11.962;2023-02-15T17:58:22;9.33;;;5.13;;
13335;SDS011;6737;51.480;11.962;2023-02-15T18:00:51;6.83;;;5.00;;
13335;SDS011;6737;51.480;11.962;2023-02-15T18:06:30;9.03;;;5.03;;
13335;SDS011;6737;51.480;11.962;2023-02-15T18:09:17;8.17;;;5.10;;
13335;SDS011;6737;51.480;11.962;2023-02-15T18:14:53;7.47;;;5.27;;
13335;SDS011;6737;51.480;11.962;2023-02-15T18:17:25;7.60;;;5.63;;
13335;SDS011;6737;51.480;11.962;2023-02-15T18:19:55;7.67;;;5.40;;
13335;SDS011;6737;51.480;11.962;2023-02-15T18:22:21;9.33;;;4.80;;
13335;SDS011;6737;51.480;11.962;2023-02-15T18:24:47;7.87;;;5.13;;
13335;SDS011;6737;51.480;11.962;2023-02-15T18:27:14;6.77;;;5.00;;
13335;SDS011;6737;51.480;11.962;2023-02-15T18:29:40;6.30;;;5.20;;
13335;SDS011;6737;51.480;11.962;2023-02-15T18:32:07;6.67;;;5.60;;
13335;SDS011;6737;51.480;11.962;2023-02-15T18:34:42;8.10;;;5.60;;
13335;SDS011;6737;51.480;11.962;2023-02-15T18:37:32;8.70;;;5.70;;
13335;SDS011;6737;51.480;11.962;2023-02-15T18:39:57;6.40;;;5.40;;